Time;durP1;ratioP1;P1;durP2;ratioP2;P2;SDS_P1;SDS_P2;PMS_P1;PMS_P2;Temp;Humidity;BMP_temperature;BMP_pressure;BME280_temperature;BME280_humidity;BME280_pressure;Samples;Min_cycle;Max_cycle;Signal;HPM_P1;HPM_P2
2021/07/04 00:02:00;;;;;;;10.40;9.50;;;21.70;99.90;;;;;;5052402;28;20180;-80
2021/07/04 00:04:25;;;;;;;9.80;8.93;;;21.70;99.90;;;;;;5034889;28;20183;-80
2021/07/04 00:06:51;;;;;;;9.83;8.93;;;21.70;99.90;;;;;;5034627;28;20607;-80
2021/07/04 00:09:17;;;;;;;9.50;8.60;;;21.60;99.90;;;;;;5051253;28;20207;-80
2021/07/04 00:11:43;;;;;;;10.47;8.27;;;21.60;99.90;;;;;;5052877;28;20169;-80
2021/07/04 00:14:08;;;;;;;10.23;9.43;;;21.60;99.90;;;;;;5057028;28;20596;-80
2021/07/04 00:16:34;;;;;;;9.07;8.27;;;21.60;99.90;;;;;;5052258;28;20193;-80
2021/07/04 00:19:00;;;;;;;8.50;7.70;;;21.70;99.90;;;;;;5050939;28;20189;-80
2021/07/04 00:21:26;;;;;;;8.70;7.90;;;21.60;99.90;;;;;;5052567;28;20236;-80
2021/07/04 00:23:53;;;;;;;8.87;8.10;;;21.60;99.90;;;;;;5034390;28;20992;-80
2021/07/04 00:26:19;;;;;;;8.67;7.97;;;21.60;99.90;;;;;;5048950;28;20291;-80
2021/07/04 00:28:44;;;;;;;8.20;7.50;;;21.60;99.90;;;;;;5040405;28;20719;-78
2021/07/04 00:31:10;;;;;;;8.87;8.03;;;21.60;99.90;;;;;;5051189;28;20580;-79
2021/07/04 00:33:36;;;;;;;8.30;7.53;;;21.60;99.90;;;;;;5052614;28;20246;-78
2021/07/04 00:36:03;;;;;;;8.43;7.57;;;21.60;99.90;;;;;;5054291;28;20572;-79
2021/07/04 00:38:30;;;;;;;8.00;7.20;;;21.60;99.90;;;;;;5051426;28;20607;-79
2021/07/04 00:40:55;;;;;;;8.80;7.90;;;21.60;99.90;;;;;;5034634;28;20611;-79
2021/07/04 00:43:21;;;;;;;8.43;7.73;;;21.60;99.90;;;;;;5052313;28;20744;-79
2021/07/04 00:45:47;;;;;;;7.93;7.20;;;21.60;99.90;;;;;;5052263;28;20161;-79
2021/07/04 00:48:16;;;;;;;8.27;7.53;;;21.60;99.90;;;;;;5052313;28;20574;-79
2021/07/04 00:50:47;;;;;;;7.30;6.60;;;21.60;99.90;;;;;;5058645;28;21017;-79
2021/07/04 00:53:16;;;;;;;9.70;7.50;;;21.60;99.90;;;;;;5052135;28;20658;-79
2021/07/04 00:55:43;;;;;;;10.93;9.10;;;21.60;99.90;;;;;;5033879;28;20560;-79
2021/07/04 00:58:12;;;;;;;7.93;6.93;;;21.60;99.90;;;;;;5050239;28;20595;-79
2021/07/04 01:00:41;;;;;;;7.73;6.70;;;21.60;99.90;;;;;;5050574;28;20567;-80
2021/07/04 01:03:07;;;;;;;8.67;6.67;;;21.60;99.90;;;;;;5050535;28;20586;-79
2021/07/04 01:05:39;;;;;;;7.33;6.23;;;21.60;99.90;;;;;;5051721;28;20645;-79
2021/07/04 01:08:07;;;;;;;7.50;6.83;;;21.60;99.90;;;;;;5033718;28;20607;-80
2021/07/04 01:10:35;;;;;;;6.30;5.80;;;21.60;99.90;;;;;;5051813;28;20615;-80
2021/07/04 01:13:06;;;;;;;6.90;6.30;;;21.60;99.90;;;;;;5033301;28;20560;-80
2021/07/04 01:15:35;;;;;;;7.83;7.20;;;21.60;99.90;;;;;;5051678;28;20571;-80
2021/07/04 01:18:06;;;;;;;7.17;6.57;;;21.60;99.90;;;;;;5050287;28;20602;-80
2021/07/04 01:20:35;;;;;;;7.37;6.13;;;21.60;99.90;;;;;;5034205;28;20602;-80
2021/07/04 01:23:11;;;;;;;6.17;5.57;;;21.60;99.90;;;;;;5050624;28;20931;-80
2021/07/04 01:25:49;;;;;;;5.13;4.63;;;21.60;99.90;;;;;;5052731;28;20670;-79
2021/07/04 01:28:18;;;;;;;5.50;5.00;;;21.60;99.90;;;;;;5035473;28;21009;-80
2021/07/04 01:30:51;;;;;;;6.13;5.40;;;21.60;99.90;;;;;;5033868;28;20626;-79
2021/07/04 01:33:16;;;;;;;5.90;5.40;;;21.60;99.90;;;;;;5050305;28;20570;-79
2021/07/04 01:35:42;;;;;;;5.50;5.00;;;21.50;99.90;;;;;;5051260;28;20571;-78
2021/07/04 01:38:08;;;;;;;5.37;4.97;;;21.50;99.90;;;;;;5049791;28;20276;-79
2021/07/04 01:40:35;;;;;;;6.00;5.50;;;21.50;99.90;;;;;;5050462;28;20691;-79
2021/07/04 01:43:02;;;;;;;6.37;5.80;;;21.50;99.90;;;;;;5051296;28;20574;-79
2021/07/04 01:45:30;;;;;;;5.40;4.90;;;21.40;99.90;;;;;;5050061;28;20982;-79
2021/07/04 01:47:56;;;;;;;6.50;5.90;;;21.40;99.90;;;;;;5033190;28;20657;-79
2021/07/04 01:50:28;;;;;;;6.30;5.50;;;21.30;99.90;;;;;;5033745;28;20618;-79
2021/07/04 01:52:55;;;;;;;6.97;6.37;;;21.30;99.90;;;;;;5033527;28;21130;-80
2021/07/04 01:55:23;;;;;;;7.40;6.50;;;21.30;99.90;;;;;;5033557;28;20578;-80
2021/07/04 01:57:53;;;;;;;5.40;4.90;;;21.30;99.90;;;;;;5032986;28;20614;-80
2021/07/04 02:00:28;;;;;;;6.80;6.30;;;21.30;99.90;;;;;;5033999;28;20648;-80
2021/07/04 02:03:08;;;;;;;5.77;5.17;;;21.30;99.90;;;;;;5038103;28;20583;-80
2021/07/04 02:05:39;;;;;;;6.47;5.83;;;21.30;99.90;;;;;;5050328;28;20570;-79
2021/07/04 02:08:08;;;;;;;6.07;5.50;;;21.30;99.90;;;;;;5053115;28;20955;-79
2021/07/04 02:10:38;;;;;;;6.20;5.70;;;21.30;99.90;;;;;;5054096;28;20615;-79
2021/07/04 02:13:07;;;;;;;4.77;4.37;;;21.30;99.90;;;;;;5037755;28;20956;-79
2021/07/04 02:15:35;;;;;;;6.47;6.00;;;21.30;99.90;;;;;;5037473;28;20595;-80
2021/07/04 02:18:13;;;;;;;5.63;5.13;;;21.30;99.90;;;;;;5053676;28;20599;-79
2021/07/04 02:20:55;;;;;;;5.50;5.10;;;21.20;99.90;;;;;;5037257;28;20572;-79
2021/07/04 02:23:53;;;;;;;5.30;4.90;;;21.20;99.90;;;;;;5038432;28;20571;-79
2021/07/04 02:26:41;;;;;;;5.40;5.00;;;21.20;99.90;;;;;;5057193;28;20764;-79
2021/07/04 02:29:15;;;;;;;5.27;4.43;;;21.20;99.90;;;;;;5056801;28;20619;-79
2021/07/04 02:31:46;;;;;;;4.33;4.03;;;21.20;99.90;;;;;;5046325;28;20556;-79
2021/07/04 02:34:14;;;;;;;7.83;5.30;;;21.20;99.90;;;;;;5056779;28;20564;-79
2021/07/04 02:36:54;;;;;;;4.13;3.83;;;21.20;99.90;;;;;;5056449;28;20591;-80
2021/07/04 02:39:24;;;;;;;4.47;4.10;;;21.10;99.90;;;;;;5055976;28;20579;-80
2021/07/04 02:41:53;;;;;;;4.90;4.50;;;21.10;99.90;;;;;;5054174;28;20560;-79
2021/07/04 02:44:20;;;;;;;5.27;4.77;;;21.10;99.90;;;;;;5054440;28;20582;-80
2021/07/04 02:46:46;;;;;;;5.30;4.80;;;21.10;99.90;;;;;;5052992;28;20595;-80
2021/07/04 02:49:12;;;;;;;5.43;4.93;;;21.00;99.90;;;;;;5054050;28;20924;-80
2021/07/04 02:51:39;;;;;;;5.07;4.67;;;21.00;99.90;;;;;;5053510;28;20678;-79
2021/07/04 02:54:08;;;;;;;5.43;5.03;;;21.00;99.90;;;;;;5055016;28;20621;-80
2021/07/04 02:56:34;;;;;;;4.80;4.40;;;21.00;99.90;;;;;;5036190;28;20626;-80
2021/07/04 02:59:00;;;;;;;4.57;4.20;;;20.90;99.90;;;;;;5052312;28;20219;-80
2021/07/04 03:01:27;;;;;;;5.40;4.90;;;20.90;99.90;;;;;;5036507;28;20173;-80
2021/07/04 03:03:53;;;;;;;5.50;5.10;;;20.90;99.90;;;;;;5052804;28;21138;-80
2021/07/04 03:06:20;;;;;;;6.67;4.80;;;20.80;99.90;;;;;;5052491;28;20318;-79
2021/07/04 03:08:46;;;;;;;4.90;4.50;;;20.80;99.90;;;;;;5052808;28;20579;-79
2021/07/04 03:11:17;;;;;;;6.37;4.73;;;20.80;99.90;;;;;;5052734;28;20572;-79
2021/07/04 03:13:44;;;;;;;4.57;4.27;;;20.70;99.90;;;;;;5052712;28;20930;-80
2021/07/04 03:16:10;;;;;;;5.20;4.70;;;20.70;99.90;;;;;;5057129;28;20596;-79
2021/07/04 03:18:37;;;;;;;4.30;3.90;;;20.70;99.90;;;;;;5066922;22;20664;-78
2021/07/04 03:21:04;;;;;;;5.63;4.70;;;20.70;99.90;;;;;;5018953;28;20581;-78
2021/07/04 03:23:30;;;;;;;5.07;4.63;;;20.70;99.90;;;;;;5022010;28;20594;-78
2021/07/04 03:26:00;;;;;;;5.00;4.60;;;20.70;99.90;;;;;;5027481;28;20579;-79
2021/07/04 03:28:30;;;;;;;5.60;5.10;;;20.60;99.90;;;;;;5024721;28;20629;-78
2021/07/04 03:31:03;;;;;;;4.93;4.47;;;20.60;99.90;;;;;;5022776;28;21137;-78
2021/07/04 03:33:30;;;;;;;5.50;5.00;;;20.60;99.90;;;;;;5002421;28;20939;-77
2021/07/04 03:35:56;;;;;;;5.93;5.00;;;20.60;99.90;;;;;;5007241;28;20935;-77
2021/07/04 03:38:23;;;;;;;6.40;5.90;;;20.60;99.90;;;;;;5025473;28;20616;-78
2021/07/04 03:40:50;;;;;;;6.03;4.93;;;20.60;99.90;;;;;;5003764;28;20602;-78
2021/07/04 03:43:36;;;;;;;5.63;5.13;;;20.50;99.90;;;;;;4976816;28;21170;-77
2021/07/04 03:46:02;;;;;;;6.00;5.43;;;20.50;99.90;;;;;;4981328;28;20623;-78
2021/07/04 03:48:34;;;;;;;8.30;5.37;;;20.50;99.90;;;;;;5003705;28;20292;-77
2021/07/04 03:51:06;;;;;;;5.20;4.80;;;20.50;99.90;;;;;;4996054;28;20990;-78
2021/07/04 03:53:35;;;;;;;5.33;4.83;;;20.50;99.90;;;;;;4996068;28;20628;-77
2021/07/04 03:56:01;;;;;;;5.77;5.27;;;20.50;99.90;;;;;;4997767;28;20562;-77
2021/07/04 03:58:29;;;;;;;6.13;5.30;;;20.50;99.90;;;;;;4979881;28;20651;-77
2021/07/04 04:00:56;;;;;;;6.37;5.80;;;20.50;99.90;;;;;;5017010;28;21194;-77
2021/07/04 04:03:30;;;;;;;6.77;6.20;;;20.50;99.90;;;;;;5002220;28;20571;-77
2021/07/04 04:05:58;;;;;;;7.03;6.00;;;20.50;99.90;;;;;;4990681;28;20576;-77
2021/07/04 04:08:29;;;;;;;6.00;5.40;;;20.50;99.90;;;;;;5030919;28;20664;-77
2021/07/04 04:10:56;;;;;;;6.03;5.50;;;20.60;99.90;;;;;;5021718;28;20619;-77
2021/07/04 04:13:22;;;;;;;6.77;6.10;;;20.60;99.90;;;;;;5027090;28;20572;-77
2021/07/04 04:15:54;;;;;;;7.40;5.73;;;20.70;99.90;;;;;;5027456;28;20173;-78
2021/07/04 04:18:23;;;;;;;8.10;5.07;;;20.80;99.90;;;;;;5026309;28;20616;-77
2021/07/04 04:20:49;;;;;;;6.47;5.70;;;20.80;99.90;;;;;;5027523;28;20663;-78
2021/07/04 04:23:15;;;;;;;7.13;6.40;;;20.90;99.90;;;;;;5028006;28;20584;-78
2021/07/04 04:25:44;;;;;;;6.33;5.67;;;21.00;99.90;;;;;;5041500;28;20580;-78
2021/07/04 04:28:10;;;;;;;7.33;6.60;;;21.10;99.90;;;;;;5016756;28;20603;-77
2021/07/04 04:30:37;;;;;;;8.80;7.97;;;21.10;99.90;;;;;;5039049;28;20627;-77
2021/07/04 04:33:04;;;;;;;7.80;6.67;;;21.10;99.90;;;;;;5020521;28;20638;-77
2021/07/04 04:35:31;;;;;;;7.13;6.53;;;21.10;99.90;;;;;;5015255;28;20607;-77
2021/07/04 04:37:57;;;;;;;8.00;7.30;;;21.10;99.90;;;;;;5014761;28;20615;-77
2021/07/04 04:40:23;;;;;;;6.80;6.10;;;21.00;99.90;;;;;;5031309;28;20180;-77
2021/07/04 04:42:49;;;;;;;7.90;7.17;;;21.00;99.90;;;;;;5032383;28;20576;-77
2021/07/04 04:45:15;;;;;;;12.33;11.13;;;20.90;99.90;;;;;;5032084;28;21124;-77
2021/07/04 04:47:41;;;;;;;11.70;10.63;;;20.90;99.90;;;;;;5032063;28;20258;-77
2021/07/04 04:50:08;;;;;;;11.63;10.53;;;20.80;99.90;;;;;;5014165;28;20616;-78
2021/07/04 04:52:35;;;;;;;9.73;8.83;;;20.80;99.90;;;;;;5032025;28;20564;-77
2021/07/04 04:55:02;;;;;;;9.50;8.60;;;20.80;99.90;;;;;;5032088;28;20561;-77
2021/07/04 04:57:28;;;;;;;9.30;8.50;;;20.70;99.90;;;;;;5031902;28;20579;-77
2021/07/04 04:59:53;;;;;;;9.10;8.20;;;20.70;99.90;;;;;;5030287;28;20704;-77
2021/07/04 05:02:20;;;;;;;8.57;7.77;;;20.80;99.90;;;;;;5014073;28;20178;-78
2021/07/04 05:04:46;;;;;;;7.40;6.80;;;20.80;99.90;;;;;;5014364;28;20925;-78
2021/07/04 05:07:11;;;;;;;10.70;8.57;;;20.90;99.90;;;;;;5031493;28;20197;-78
2021/07/04 05:09:37;;;;;;;11.43;8.03;;;20.90;99.90;;;;;;5014421;28;20244;-77
2021/07/04 05:12:03;;;;;;;8.20;6.77;;;20.90;99.90;;;;;;5031615;28;20178;-78
2021/07/04 05:14:29;;;;;;;7.90;7.20;;;20.90;99.90;;;;;;5013959;28;20189;-78
2021/07/04 05:16:55;;;;;;;7.53;6.90;;;20.90;99.90;;;;;;5030231;28;20611;-78
2021/07/04 05:19:21;;;;;;;9.20;8.30;;;21.00;99.90;;;;;;5031005;28;20216;-78
2021/07/04 05:21:47;;;;;;;9.03;8.23;;;21.00;99.90;;;;;;5031694;28;20545;-78
2021/07/04 05:24:12;;;;;;;8.90;8.10;;;21.10;99.90;;;;;;5031420;28;20173;-78
2021/07/04 05:26:39;;;;;;;8.77;7.60;;;21.10;99.90;;;;;;5031356;28;20206;-78
2021/07/04 05:29:05;;;;;;;8.13;7.33;;;21.10;99.90;;;;;;5029993;28;20296;-78
2021/07/04 05:31:31;;;;;;;8.13;7.43;;;21.20;99.90;;;;;;5031459;28;21071;-78
2021/07/04 05:33:57;;;;;;;8.37;7.77;;;21.10;99.90;;;;;;5031458;28;20631;-78
2021/07/04 05:36:23;;;;;;;10.17;7.53;;;21.10;99.90;;;;;;5031189;28;20925;-77
2021/07/04 05:38:49;;;;;;;7.17;6.47;;;21.20;99.90;;;;;;5013362;28;20965;-77
2021/07/04 05:41:15;;;;;;;8.50;7.10;;;21.30;99.90;;;;;;5013518;28;20591;-77
2021/07/04 05:43:43;;;;;;;9.00;7.50;;;21.40;99.90;;;;;;4982823;28;20258;-77
2021/07/04 05:46:10;;;;;;;7.97;7.33;;;21.50;99.90;;;;;;4992569;28;20573;-78
2021/07/04 05:48:37;;;;;;;7.57;6.87;;;21.60;99.90;;;;;;4991441;28;20606;-78
2021/07/04 05:51:03;;;;;;;9.13;7.50;;;21.90;99.90;;;;;;4991712;28;20648;-77
2021/07/04 05:53:29;;;;;;;9.70;6.97;;;22.00;99.90;;;;;;4991768;28;20574;-78
2021/07/04 05:55:55;;;;;;;7.20;6.60;;;22.20;99.90;;;;;;4991358;28;20929;-77
2021/07/04 05:58:21;;;;;;;6.17;5.63;;;22.30;99.90;;;;;;4991523;28;20610;-77
2021/07/04 06:00:47;;;;;;;8.67;7.87;;;22.30;99.90;;;;;;4994583;28;20202;-77
2021/07/04 06:03:13;;;;;;;8.00;7.30;;;22.40;99.90;;;;;;4995476;28;20593;-76
2021/07/04 06:05:39;;;;;;;9.67;7.00;;;22.60;99.90;;;;;;4977946;28;20570;-77
2021/07/04 06:08:05;;;;;;;8.37;7.57;;;23.20;99.90;;;;;;4995388;28;20593;-77
2021/07/04 06:10:31;;;;;;;6.47;5.80;;;24.10;99.90;;;;;;4995243;28;20728;-77
2021/07/04 06:12:56;;;;;;;7.20;6.60;;;24.90;99.90;;;;;;4994290;28;20600;-77
2021/07/04 06:15:23;;;;;;;6.17;5.67;;;25.90;99.90;;;;;;4995620;28;20625;-76
2021/07/04 06:17:49;;;;;;;5.10;4.70;;;26.80;99.90;;;;;;4995281;28;20670;-78
2021/07/04 06:20:16;;;;;;;5.93;5.43;;;27.60;99.90;;;;;;4995523;28;20609;-78
2021/07/04 06:22:43;;;;;;;6.03;5.20;;;28.40;99.90;;;;;;4978440;28;20179;-78
2021/07/04 06:25:11;;;;;;;5.93;5.20;;;29.20;99.90;;;;;;4993585;28;20570;-78
2021/07/04 06:27:39;;;;;;;6.10;5.60;;;29.60;99.90;;;;;;4995060;28;20566;-78
2021/07/04 06:30:09;;;;;;;6.00;4.40;;;29.90;99.90;;;;;;4977261;28;20664;-78
2021/07/04 06:32:36;;;;;;;5.80;5.30;;;29.70;99.90;;;;;;4994972;28;20575;-78
2021/07/04 06:35:03;;;;;;;5.10;4.70;;;29.40;99.90;;;;;;5000952;28;20570;-78
2021/07/04 06:37:29;;;;;;;5.20;4.80;;;29.40;99.90;;;;;;4993605;28;20610;-78
2021/07/04 06:39:55;;;;;;;5.33;4.93;;;29.70;99.90;;;;;;5001876;28;20647;-79
2021/07/04 06:42:21;;;;;;;4.80;4.40;;;30.00;99.90;;;;;;4979812;28;20264;-77
2021/07/04 06:44:46;;;;;;;4.80;4.37;;;29.90;99.90;;;;;;5002628;28;20175;-78
2021/07/04 06:47:12;;;;;;;4.63;4.10;;;29.90;99.90;;;;;;4993311;28;20174;-78
2021/07/04 06:49:38;;;;;;;4.63;4.23;;;29.90;99.90;;;;;;5013748;28;20253;-78
2021/07/04 06:52:04;;;;;;;6.57;4.77;;;29.90;99.90;;;;;;5014254;28;20166;-78
2021/07/04 06:54:30;;;;;;;4.90;4.30;;;30.20;99.90;;;;;;5014440;28;20173;-78
2021/07/04 06:56:56;;;;;;;5.47;4.50;;;30.40;99.90;;;;;;5014057;28;20572;-78
2021/07/04 06:59:21;;;;;;;4.10;3.80;;;30.40;99.90;;;;;;5014398;28;20631;-78
2021/07/04 07:01:47;;;;;;;5.13;4.73;;;30.80;99.90;;;;;;5012766;28;20170;-79
2021/07/04 07:04:13;;;;;;;4.40;4.00;;;31.00;99.90;;;;;;5013926;28;20170;-79
2021/07/04 07:06:43;;;;;;;4.47;4.03;;;31.20;99.90;;;;;;4996188;28;20170;-78
2021/07/04 07:09:08;;;;;;;4.37;3.97;;;31.30;99.90;;;;;;4963547;28;20637;-78
2021/07/04 07:11:34;;;;;;;4.30;4.00;;;31.50;99.90;;;;;;5012811;28;20748;-78
2021/07/04 07:14:00;;;;;;;7.67;4.17;;;31.50;99.90;;;;;;5013786;28;20167;-76
2021/07/04 07:16:26;;;;;;;4.10;3.67;;;31.30;99.90;;;;;;5013560;28;20177;-77
2021/07/04 07:18:52;;;;;;;4.53;4.10;;;31.10;99.90;;;;;;5013232;28;20986;-77
2021/07/04 07:21:19;;;;;;;4.10;3.70;;;31.00;99.90;;;;;;4996191;28;20609;-78
2021/07/04 07:23:45;;;;;;;6.13;4.13;;;30.70;99.90;;;;;;4996101;28;20605;-78
2021/07/04 07:26:11;;;;;;;4.10;3.70;;;30.40;99.90;;;;;;4995903;28;20261;-79
2021/07/04 07:28:37;;;;;;;4.57;4.27;;;30.30;99.90;;;;;;4995733;28;20681;-78
2021/07/04 07:31:10;;;;;;;4.73;4.33;;;30.00;99.90;;;;;;5013668;28;20635;-78
2021/07/04 07:33:36;;;;;;;3.83;3.53;;;29.90;99.90;;;;;;5013645;28;20569;-79
2021/07/04 07:36:04;;;;;;;4.27;3.83;;;30.00;99.90;;;;;;4996328;28;20564;-78
2021/07/04 07:38:29;;;;;;;7.70;4.27;;;30.30;99.90;;;;;;5013192;28;20610;-77
2021/07/04 07:40:55;;;;;;;5.83;4.00;;;30.80;99.90;;;;;;5013536;28;20578;-77
2021/07/04 07:43:21;;;;;;;4.80;4.40;;;31.30;99.90;;;;;;5013251;28;20168;-78
2021/07/04 07:45:47;;;;;;;4.70;3.70;;;32.10;99.90;;;;;;4995729;28;20921;-78
2021/07/04 07:48:13;;;;;;;5.23;4.23;;;33.10;99.90;;;;;;4995477;28;20194;-79
2021/07/04 07:50:50;;;;;;;4.00;3.70;;;34.20;99.90;;;;;;4997409;28;20720;-78
2021/07/04 07:53:16;;;;;;;3.97;3.67;;;35.20;99.90;;;;;;4995778;28;20573;-78
2021/07/04 07:55:42;;;;;;;3.37;2.80;;;36.10;99.90;;;;;;4995701;28;20264;-77
2021/07/04 07:58:07;;;;;;;3.50;3.20;;;37.10;99.90;;;;;;5012846;28;20243;-76
2021/07/04 08:00:33;;;;;;;3.20;2.90;;;37.90;99.90;;;;;;5012992;28;20197;-75
2021/07/04 08:03:00;;;;;;;4.13;3.70;;;38.50;99.60;;;;;;4995611;28;20548;-76
2021/07/04 08:05:26;;;;;;;3.80;3.43;;;38.90;97.10;;;;;;5012980;28;20680;-76
2021/07/04 08:07:53;;;;;;;3.10;2.83;;;39.30;94.60;;;;;;4994879;28;20577;-76
2021/07/04 08:10:22;;;;;;;6.00;3.60;;;39.50;92.50;;;;;;4995251;28;20617;-76
2021/07/04 08:12:48;;;;;;;2.67;2.47;;;39.80;91.10;;;;;;4996216;28;20576;-76
2021/07/04 08:15:14;;;;;;;4.07;3.70;;;39.70;87.80;;;;;;4995315;28;20185;-76
2021/07/04 08:17:43;;;;;;;2.63;2.43;;;39.10;83.60;;;;;;4994983;28;20600;-77
2021/07/04 08:20:10;;;;;;;3.73;3.27;;;38.40;81.40;;;;;;4994873;28;20585;-76
2021/07/04 08:22:36;;;;;;;3.83;3.20;;;37.80;80.50;;;;;;5011121;28;20166;-76
2021/07/04 08:25:05;;;;;;;3.67;3.37;;;37.10;78.80;;;;;;4995028;28;20576;-76
2021/07/04 08:27:30;;;;;;;3.80;3.50;;;36.40;78.60;;;;;;5012512;28;20994;-75
2021/07/04 08:29:56;;;;;;;3.40;3.10;;;35.60;79.20;;;;;;5012034;28;20751;-76
2021/07/04 08:32:22;;;;;;;3.40;3.10;;;35.00;80.00;;;;;;5012531;28;20175;-76
2021/07/04 08:34:47;;;;;;;3.90;3.60;;;34.40;80.70;;;;;;5012681;28;20171;-76
2021/07/04 08:37:13;;;;;;;4.90;4.47;;;34.00;83.80;;;;;;5012436;28;20172;-76
2021/07/04 08:39:39;;;;;;;3.43;3.13;;;34.10;86.50;;;;;;5012142;28;20226;-76
2021/07/04 08:42:05;;;;;;;3.80;3.50;;;34.00;86.60;;;;;;4994959;28;20186;-76
2021/07/04 08:44:31;;;;;;;3.47;3.17;;;33.90;86.00;;;;;;5012476;28;20219;-76
2021/07/04 08:46:59;;;;;;;3.70;3.40;;;33.70;85.50;;;;;;5011014;28;20579;-76
2021/07/04 08:49:24;;;;;;;3.40;3.10;;;33.50;85.40;;;;;;5011451;28;20261;-76
2021/07/04 08:51:53;;;;;;;3.27;3.00;;;33.30;85.60;;;;;;5012093;28;21003;-76
2021/07/04 08:54:22;;;;;;;4.30;3.77;;;33.10;85.30;;;;;;4995040;28;20569;-76
2021/07/04 08:56:50;;;;;;;4.57;3.30;;;32.90;86.60;;;;;;4985788;28;20586;-76
2021/07/04 08:59:16;;;;;;;4.80;4.10;;;32.90;88.50;;;;;;5030827;28;20742;-76
2021/07/04 09:02:00;;;;;;;5.30;4.27;;;32.70;87.80;;;;;;5031590;28;20668;-76
2021/07/04 09:04:29;;;;;;;4.93;4.57;;;32.50;87.60;;;;;;5014264;28;20978;-76
2021/07/04 09:06:59;;;;;;;4.20;3.80;;;32.20;87.50;;;;;;5013212;28;20692;-76
2021/07/04 09:09:27;;;;;;;3.73;3.43;;;32.10;89.30;;;;;;4998651;28;20697;-76
2021/07/04 09:11:53;;;;;;;4.97;4.37;;;32.30;90.30;;;;;;4991258;28;21002;-76
2021/07/04 09:14:31;;;;;;;4.10;3.80;;;32.50;90.50;;;;;;4992223;28;20665;-76
2021/07/04 09:16:57;;;;;;;4.03;3.67;;;32.60;90.20;;;;;;4992096;28;20183;-76
2021/07/04 09:19:23;;;;;;;3.60;3.37;;;32.80;90.40;;;;;;5006646;23;21018;-80
2021/07/04 09:22:00;;;;;;;3.80;3.50;;;33.20;90.80;;;;;;4968219;28;20584;-77
2021/07/04 09:24:29;;;;;;;3.50;3.20;;;33.60;90.00;;;;;;4957831;28;20650;-78
2021/07/04 09:26:55;;;;;;;2.97;2.27;;;34.00;89.10;;;;;;4980127;28;20567;-78
2021/07/04 09:29:46;;;;;;;2.87;2.67;;;34.50;90.40;;;;;;4951077;29;21115;-78
2021/07/04 09:32:15;;;;;;;2.47;2.20;;;35.20;90.10;;;;;;4968865;28;20563;-79
2021/07/04 09:34:42;;;;;;;3.67;3.37;;;35.70;87.00;;;;;;4969944;28;20568;-78
2021/07/04 09:37:08;;;;;;;2.60;2.40;;;36.00;82.60;;;;;;4972588;28;20935;-79
2021/07/04 09:39:33;;;;;;;2.43;2.23;;;36.00;80.50;;;;;;4957183;28;20599;-79
2021/07/04 09:42:11;;;;;;;2.47;2.27;;;35.80;78.30;;;;;;4957669;29;20976;-79
2021/07/04 09:44:38;;;;;;;3.10;2.77;;;35.50;76.10;;;;;;4972860;28;20185;-79
2021/07/04 09:47:15;;;;;;;2.73;2.53;;;35.10;76.90;;;;;;4956677;29;20584;-79
2021/07/04 09:49:42;;;;;;;4.20;3.53;;;34.90;76.90;;;;;;4958096;28;20657;-78
2021/07/04 09:52:15;;;;;;;3.30;2.93;;;34.70;77.20;;;;;;4956264;29;20991;-79
2021/07/04 09:55:04;;;;;;;2.90;2.70;;;34.30;77.10;;;;;;4956247;29;20633;-78
2021/07/04 09:57:55;;;;;;;2.70;2.50;;;34.10;77.90;;;;;;4957286;28;20675;-77
2021/07/04 10:00:21;;;;;;;3.43;3.13;;;33.70;77.90;;;;;;4972092;28;20607;-77
2021/07/04 10:03:05;;;;;;;3.20;3.00;;;33.20;76.70;;;;;;4956126;29;20584;-78
2021/07/04 10:05:31;;;;;;;5.83;3.30;;;32.70;78.10;;;;;;4956861;28;20655;-79
2021/07/04 10:07:57;;;;;;;3.43;3.10;;;32.30;78.50;;;;;;4955543;29;20635;-79
2021/07/04 10:10:23;;;;;;;3.37;3.07;;;31.60;78.80;;;;;;4955289;28;20643;-79
2021/07/04 10:12:49;;;;;;;4.80;4.40;;;31.00;79.30;;;;;;4956964;28;20176;-79
2021/07/04 10:15:15;;;;;;;4.47;3.90;;;30.30;80.60;;;;;;4956698;29;20175;-78
2021/07/04 10:17:42;;;;;;;4.50;4.07;;;29.70;82.60;;;;;;4956802;28;20199;-77
2021/07/04 10:20:09;;;;;;;4.53;4.10;;;29.20;84.10;;;;;;4956180;28;20215;-78
2021/07/04 10:22:36;;;;;;;4.23;3.80;;;28.70;85.70;;;;;;4965958;28;20612;-81
2021/07/04 10:25:05;;;;;;;4.40;4.10;;;28.30;86.10;;;;;;4959260;29;20568;-80
2021/07/04 10:27:37;;;;;;;4.30;4.00;;;27.70;87.80;;;;;;4956971;28;20580;-81
2021/07/04 10:30:05;;;;;;;4.03;3.17;;;27.30;89.00;;;;;;4952903;29;20651;-81
2021/07/04 10:32:30;;;;;;;4.43;3.97;;;26.90;90.20;;;;;;4947219;29;20960;-82
2021/07/04 10:35:09;;;;;;;6.70;4.30;;;26.50;90.90;;;;;;4939238;29;20591;-80
2021/07/04 10:37:37;;;;;;;4.20;3.70;;;26.30;92.00;;;;;;4956694;28;20175;-79
2021/07/04 10:40:18;;;;;;;3.80;3.50;;;26.10;93.00;;;;;;4955790;28;20618;-80
2021/07/04 10:42:44;;;;;;;3.93;3.63;;;26.00;94.10;;;;;;4955110;28;20579;-80
2021/07/04 10:45:30;;;;;;;2.57;2.37;;;25.90;94.20;;;;;;4961018;28;20611;-80
2021/07/04 10:48:19;;;;;;;4.03;3.63;;;25.70;95.20;;;;;;4947880;29;20620;-81
2021/07/04 10:51:08;;;;;;;3.60;3.20;;;25.60;96.70;;;;;;4952605;28;20663;-82
2021/07/04 10:53:47;;;;;;;3.17;2.70;;;25.40;98.10;;;;;;4962470;28;20579;-81
2021/07/04 10:56:34;;;;;;;3.80;2.40;;;25.40;97.30;;;;;;4959991;28;21005;-81
2021/07/04 10:59:06;;;;;;;1.70;1.50;;;25.30;97.50;;;;;;4957261;28;20614;-80
2021/07/04 11:01:51;;;;;;;2.30;1.80;;;25.40;97.60;;;;;;4964374;28;20584;-80
2021/07/04 11:04:37;;;;;;;2.10;1.30;;;25.50;97.80;;;;;;4959577;28;20587;-80
2021/07/04 11:07:05;;;;;;;2.67;1.20;;;25.60;97.70;;;;;;4954294;29;21019;-80
2021/07/04 11:09:53;;;;;;;1.77;1.17;;;26.00;98.20;;;;;;4950595;28;21005;-79
2021/07/04 11:12:34;;;;;;;2.70;1.77;;;26.30;98.20;;;;;;4948953;28;20582;-80
2021/07/04 11:15:12;;;;;;;2.07;1.10;;;26.50;97.50;;;;;;4974753;28;20572;-79
2021/07/04 11:17:56;;;;;;;1.53;1.17;;;26.90;96.90;;;;;;4967449;28;20576;-79
2021/07/04 11:20:23;;;;;;;1.53;1.20;;;27.10;96.70;;;;;;4957422;28;20636;-79
2021/07/04 11:23:18;;;;;;;2.20;1.80;;;27.40;97.00;;;;;;4965441;28;20585;-79
2021/07/04 11:25:53;;;;;;;1.97;1.33;;;27.60;97.40;;;;;;4954982;29;21004;-79
2021/07/04 11:28:19;;;;;;;1.47;1.23;;;28.00;97.40;;;;;;4956922;28;20575;-78
2021/07/04 11:31:02;;;;;;;1.70;1.40;;;28.30;97.40;;;;;;4974237;28;21204;-79
2021/07/04 11:33:43;;;;;;;2.20;1.50;;;28.40;95.80;;;;;;4974547;28;20219;-79
2021/07/04 11:36:19;;;;;;;3.00;1.53;;;28.60;95.60;;;;;;4954165;28;20940;-79
2021/07/04 11:38:45;;;;;;;2.80;1.40;;;28.60;96.00;;;;;;4956755;28;20619;-80
2021/07/04 11:41:33;;;;;;;1.70;1.30;;;28.80;95.90;;;;;;4954820;28;20603;-79
2021/07/04 11:44:00;;;;;;;1.93;1.47;;;29.00;95.60;;;;;;4954561;29;20172;-79
2021/07/04 11:46:28;;;;;;;2.30;1.80;;;29.10;94.60;;;;;;4953581;29;20580;-80
2021/07/04 11:48:58;;;;;;;1.47;1.20;;;29.10;94.90;;;;;;4954456;28;20991;-78
2021/07/04 11:51:35;;;;;;;1.40;1.10;;;29.20;94.80;;;;;;4948385;28;20960;-79
2021/07/04 11:54:21;;;;;;;1.50;1.20;;;29.30;94.80;;;;;;4953585;29;20576;-79
2021/07/04 11:56:52;;;;;;;2.10;1.47;;;29.40;94.70;;;;;;4968674;28;20584;-80
2021/07/04 11:59:25;;;;;;;1.93;1.70;;;29.60;94.70;;;;;;4955604;28;20608;-80
2021/07/04 12:01:56;;;;;;;2.13;1.93;;;29.70;94.50;;;;;;4954141;29;20608;-80
2021/07/04 12:04:30;;;;;;;1.90;1.70;;;29.80;94.30;;;;;;4952888;28;21147;-78
2021/07/04 12:07:08;;;;;;;2.57;1.50;;;29.90;93.90;;;;;;4962946;28;20583;-78
2021/07/04 12:09:34;;;;;;;2.47;1.40;;;29.90;93.50;;;;;;4961839;28;20685;-78
2021/07/04 12:12:00;;;;;;;1.80;1.43;;;29.90;93.10;;;;;;4953206;29;20608;-78
2021/07/04 12:14:31;;;;;;;1.63;1.53;;;29.60;92.20;;;;;;4971709;28;20188;-80
2021/07/04 12:17:19;;;;;;;3.50;1.87;;;29.30;91.80;;;;;;4961488;28;20168;-76
2021/07/04 12:19:51;;;;;;;2.10;1.90;;;28.90;92.20;;;;;;4935794;29;20717;-76
2021/07/04 12:22:21;;;;;;;2.43;1.83;;;28.60;92.40;;;;;;4954087;29;20575;-75
2021/07/04 12:24:47;;;;;;;1.90;1.50;;;28.30;92.50;;;;;;4936942;29;20571;-75
2021/07/04 12:27:13;;;;;;;2.93;2.03;;;27.90;92.70;;;;;;4953798;29;20584;-76
2021/07/04 12:30:01;;;;;;;1.80;1.23;;;27.60;93.10;;;;;;4952395;29;20684;-75
2021/07/04 12:32:35;;;;;;;2.37;1.50;;;27.40;93.60;;;;;;4936839;29;20607;-75
2021/07/04 12:35:02;;;;;;;1.80;1.63;;;27.10;93.90;;;;;;4952538;28;20579;-75
2021/07/04 12:37:28;;;;;;;2.03;1.83;;;26.80;94.30;;;;;;4952361;28;20719;-75
2021/07/04 12:40:09;;;;;;;2.17;1.10;;;26.50;94.70;;;;;;4952304;28;20667;-75
2021/07/04 12:42:35;;;;;;;2.57;1.57;;;26.40;95.40;;;;;;4953443;29;20572;-75
2021/07/04 12:45:04;;;;;;;2.33;1.50;;;26.30;95.80;;;;;;4953827;28;20580;-75
2021/07/04 12:47:30;;;;;;;1.60;1.50;;;26.20;96.10;;;;;;4952540;29;20614;-76
2021/07/04 12:50:06;;;;;;;1.57;1.30;;;26.00;96.40;;;;;;4953976;28;20641;-76
2021/07/04 12:52:32;;;;;;;2.33;1.83;;;25.90;96.80;;;;;;4958646;29;20210;-75
2021/07/04 12:54:57;;;;;;;1.90;1.50;;;25.90;97.30;;;;;;4952352;28;21154;-76
2021/07/04 12:57:31;;;;;;;1.77;1.67;;;25.70;98.10;;;;;;4952057;29;20189;-75